sensor_id;sensor_type;location;lat;lon;timestamp;P1;durP1;ratioP1;P2;durP2;ratioP2
28427;SDS011;15662;49.128;8.520;2024-01-16T00:01:08;6.97;;;4.70;;
28427;SDS011;15662;49.128;8.520;2024-01-16T00:03:36;7.50;;;4.90;;
28427;SDS011;15662;49.128;8.520;2024-01-16T00:06:05;7.53;;;4.93;;
28427;SDS011;15662;49.128;8.520;2024-01-16T00:08:33;10.95;;;5.60;;
28427;SDS011;15662;49.128;8.520;2024-01-16T00:11:01;9.30;;;5.60;;
28427;SDS011;15662;49.128;8.520;2024-01-16T00:13:29;7.88;;;5.28;;
28427;SDS011;15662;49.128;8.520;2024-01-16T00:15:58;9.63;;;5.60;;
28427;SDS011;15662;49.128;8.520;2024-01-16T00:18:27;10.38;;;5.45;;
28427;SDS011;15662;49.128;8.520;2024-01-16T00:20:55;8.35;;;5.35;;
28427;SDS011;15662;49.128;8.520;2024-01-16T00:23:23;8.85;;;5.80;;
28427;SDS011;15662;49.128;8.520;2024-01-16T00:25:50;9.40;;;5.20;;
28427;SDS011;15662;49.128;8.520;2024-01-16T00:28:17;7.68;;;5.22;;
28427;SDS011;15662;49.128;8.520;2024-01-16T00:30:46;9.07;;;5.20;;
28427;SDS011;15662;49.128;8.520;2024-01-16T00:33:13;7.55;;;5.43;;
28427;SDS011;15662;49.128;8.520;2024-01-16T00:35:41;12.63;;;5.35;;
28427;SDS011;15662;49.128;8.520;2024-01-16T00:38:08;8.02;;;5.45;;
28427;SDS011;15662;49.128;8.520;2024-01-16T00:40:35;9.75;;;5.45;;
28427;SDS011;15662;49.128;8.520;2024-01-16T00:43:03;8.18;;;5.18;;
28427;SDS011;15662;49.128;8.520;2024-01-16T00:45:30;6.50;;;4.95;;
28427;SDS011;15662;49.128;8.520;2024-01-16T00:47:57;8.45;;;5.22;;
28427;SDS011;15662;49.128;8.520;2024-01-16T00:50:25;7.88;;;5.30;;
28427;SDS011;15662;49.128;8.520;2024-01-16T00:52:53;9.25;;;5.55;;
28427;SDS011;15662;49.128;8.520;2024-01-16T00:55:20;9.35;;;5.25;;
28427;SDS011;15662;49.128;8.520;2024-01-16T00:57:47;9.60;;;5.32;;
28427;SDS011;15662;49.128;8.520;2024-01-16T01:00:15;7.45;;;4.97;;
28427;SDS011;15662;49.128;8.520;2024-01-16T01:02:42;11.10;;;5.30;;
28427;SDS011;15662;49.128;8.520;2024-01-16T01:05:10;7.40;;;4.65;;
28427;SDS011;15662;49.128;8.520;2024-01-16T01:07:38;8.35;;;5.15;;
28427;SDS011;15662;49.128;8.520;2024-01-16T01:10:05;7.85;;;4.93;;
28427;SDS011;15662;49.128;8.520;2024-01-16T01:12:34;7.78;;;5.03;;
28427;SDS011;15662;49.128;8.520;2024-01-16T01:15:01;9.57;;;5.30;;
28427;SDS011;15662;49.128;8.520;2024-01-16T01:17:29;8.85;;;5.03;;
28427;SDS011;15662;49.128;8.520;2024-01-16T01:19:56;8.70;;;5.10;;
28427;SDS011;15662;49.128;8.520;2024-01-16T01:22:24;10.43;;;5.05;;
28427;SDS011;15662;49.128;8.520;2024-01-16T01:24:52;7.13;;;4.88;;
28427;SDS011;15662;49.128;8.520;2024-01-16T01:27:19;7.88;;;4.95;;
28427;SDS011;15662;49.128;8.520;2024-01-16T01:29:47;6.30;;;4.65;;
28427;SDS011;15662;49.128;8.520;2024-01-16T01:32:14;10.13;;;5.35;;
28427;SDS011;15662;49.128;8.520;2024-01-16T01:34:42;8.68;;;4.88;;
28427;SDS011;15662;49.128;8.520;2024-01-16T01:37:09;8.48;;;5.10;;
28427;SDS011;15662;49.128;8.520;2024-01-16T01:39:36;10.45;;;5.40;;
28427;SDS011;15662;49.128;8.520;2024-01-16T01:42:04;8.32;;;5.03;;
28427;SDS011;15662;49.128;8.520;2024-01-16T01:44:32;9.43;;;5.10;;
28427;SDS011;15662;49.128;8.520;2024-01-16T01:46:59;8.43;;;5.20;;
28427;SDS011;15662;49.128;8.520;2024-01-16T01:49:27;7.55;;;4.93;;
28427;SDS011;15662;49.128;8.520;2024-01-16T01:51:54;9.05;;;5.70;;
28427;SDS011;15662;49.128;8.520;2024-01-16T01:54:22;9.35;;;5.35;;
28427;SDS011;15662;49.128;8.520;2024-01-16T01:56:51;9.32;;;5.07;;
28427;SDS011;15662;49.128;8.520;2024-01-16T01:59:19;10.15;;;5.45;;
28427;SDS011;15662;49.128;8.520;2024-01-16T02:01:48;8.88;;;5.05;;
28427;SDS011;15662;49.128;8.520;2024-01-16T02:04:19;9.55;;;5.03;;
28427;SDS011;15662;49.128;8.520;2024-01-16T02:06:48;9.63;;;5.45;;
28427;SDS011;15662;49.128;8.520;2024-01-16T02:09:15;8.50;;;4.60;;
28427;SDS011;15662;49.128;8.520;2024-01-16T02:11:43;9.30;;;4.85;;
28427;SDS011;15662;49.128;8.520;2024-01-16T02:14:11;6.70;;;4.63;;
28427;SDS011;15662;49.128;8.520;2024-01-16T02:16:39;8.40;;;4.97;;
28427;SDS011;15662;49.128;8.520;2024-01-16T02:19:08;9.98;;;5.38;;
28427;SDS011;15662;49.128;8.520;2024-01-16T02:21:39;10.25;;;5.50;;
28427;SDS011;15662;49.128;8.520;2024-01-16T02:24:16;9.18;;;5.07;;
28427;SDS011;15662;49.128;8.520;2024-01-16T02:26:46;6.95;;;4.35;;
28427;SDS011;15662;49.128;8.520;2024-01-16T02:29:14;7.75;;;4.70;;
28427;SDS011;15662;49.128;8.520;2024-01-16T02:31:43;8.23;;;4.75;;
28427;SDS011;15662;49.128;8.520;2024-01-16T02:34:10;8.00;;;5.00;;
28427;SDS011;15662;49.128;8.520;2024-01-16T02:36:38;9.10;;;5.13;;
28427;SDS011;15662;49.128;8.520;2024-01-16T02:39:05;9.30;;;4.53;;
28427;SDS011;15662;49.128;8.520;2024-01-16T02:41:33;9.30;;;5.50;;
28427;SDS011;15662;49.128;8.520;2024-01-16T02:44:00;11.07;;;5.50;;
28427;SDS011;15662;49.128;8.520;2024-01-16T02:46:27;7.93;;;5.07;;
28427;SDS011;15662;49.128;8.520;2024-01-16T02:48:55;7.97;;;4.68;;
28427;SDS011;15662;49.128;8.520;2024-01-16T02:51:22;8.65;;;4.80;;
28427;SDS011;15662;49.128;8.520;2024-01-16T02:53:50;8.85;;;4.85;;
28427;SDS011;15662;49.128;8.520;2024-01-16T02:56:17;7.18;;;4.80;;
28427;SDS011;15662;49.128;8.520;2024-01-16T02:58:44;9.63;;;5.18;;
28427;SDS011;15662;49.128;8.520;2024-01-16T03:01:12;8.82;;;5.20;;
28427;SDS011;15662;49.128;8.520;2024-01-16T03:03:42;8.13;;;5.15;;
28427;SDS011;15662;49.128;8.520;2024-01-16T03:06:09;8.48;;;4.70;;
28427;SDS011;15662;49.128;8.520;2024-01-16T03:08:47;7.85;;;4.55;;
28427;SDS011;15662;49.128;8.520;2024-01-16T03:11:15;7.95;;;5.10;;
28427;SDS011;15662;49.128;8.520;2024-01-16T03:13:43;10.80;;;4.82;;
28427;SDS011;15662;49.128;8.520;2024-01-16T03:16:10;7.30;;;4.90;;
28427;SDS011;15662;49.128;8.520;2024-01-16T03:18:38;9.93;;;4.68;;
28427;SDS011;15662;49.128;8.520;2024-01-16T03:21:05;8.07;;;5.00;;
28427;SDS011;15662;49.128;8.520;2024-01-16T03:23:34;9.93;;;5.28;;
28427;SDS011;15662;49.128;8.520;2024-01-16T03:26:01;7.40;;;5.10;;
28427;SDS011;15662;49.128;8.520;2024-01-16T03:28:30;7.00;;;4.75;;
28427;SDS011;15662;49.128;8.520;2024-01-16T03:30:57;8.27;;;4.75;;
28427;SDS011;15662;49.128;8.520;2024-01-16T03:33:24;11.88;;;5.47;;
28427;SDS011;15662;49.128;8.520;2024-01-16T03:35:52;9.10;;;4.97;;
28427;SDS011;15662;49.128;8.520;2024-01-16T03:38:19;7.30;;;4.70;;
28427;SDS011;15662;49.128;8.520;2024-01-16T03:40:47;7.07;;;4.70;;
28427;SDS011;15662;49.128;8.520;2024-01-16T03:43:15;7.68;;;5.00;;
28427;SDS011;15662;49.128;8.520;2024-01-16T03:45:42;7.78;;;5.10;;
28427;SDS011;15662;49.128;8.520;2024-01-16T03:48:10;7.80;;;5.25;;
28427;SDS011;15662;49.128;8.520;2024-01-16T03:50:38;6.82;;;4.63;;
28427;SDS011;15662;49.128;8.520;2024-01-16T03:53:10;9.13;;;5.30;;
28427;SDS011;15662;49.128;8.520;2024-01-16T03:55:38;7.22;;;5.03;;
28427;SDS011;15662;49.128;8.520;2024-01-16T03:58:05;8.10;;;5.07;;
28427;SDS011;15662;49.128;8.520;2024-01-16T04:00:36;5.20;;;3.77;;
28427;SDS011;15662;49.128;8.520;2024-01-16T04:03:03;7.93;;;4.75;;
28427;SDS011;15662;49.128;8.520;2024-01-16T04:05:31;10.05;;;5.13;;
28427;SDS011;15662;49.128;8.520;2024-01-16T04:07:58;8.70;;;5.22;;
28427;SDS011;15662;49.128;8.520;2024-01-16T04:10:25;10.23;;;5.25;;
28427;SDS011;15662;49.128;8.520;2024-01-16T04:12:53;9.05;;;5.47;;
28427;SDS011;15662;49.128;8.520;2024-01-16T04:15:20;9.02;;;5.50;;
28427;SDS011;15662;49.128;8.520;2024-01-16T04:17:49;10.60;;;5.55;;
28427;SDS011;15662;49.128;8.520;2024-01-16T04:20:16;8.07;;;5.22;;
28427;SDS011;15662;49.128;8.520;2024-01-16T04:22:44;10.32;;;5.05;;
28427;SDS011;15662;49.128;8.520;2024-01-16T04:25:12;8.10;;;5.40;;
28427;SDS011;15662;49.128;8.520;2024-01-16T04:27:39;7.35;;;5.07;;
28427;SDS011;15662;49.128;8.520;2024-01-16T04:30:07;8.93;;;5.32;;
28427;SDS011;15662;49.128;8.520;2024-01-16T04:32:35;7.57;;;5.20;;
28427;SDS011;15662;49.128;8.520;2024-01-16T04:35:03;11.20;;;5.60;;
28427;SDS011;15662;49.128;8.520;2024-01-16T04:37:31;9.43;;;5.53;;
28427;SDS011;15662;49.128;8.520;2024-01-16T04:39:58;8.93;;;5.43;;
28427;SDS011;15662;49.128;8.520;2024-01-16T04:42:26;8.98;;;5.25;;
28427;SDS011;15662;49.128;8.520;2024-01-16T04:44:54;8.80;;;5.00;;
28427;SDS011;15662;49.128;8.520;2024-01-16T04:47:22;8.68;;;5.32;;
28427;SDS011;15662;49.128;8.520;2024-01-16T04:49:49;9.25;;;5.35;;
28427;SDS011;15662;49.128;8.520;2024-01-16T04:52:16;8.57;;;5.35;;
28427;SDS011;15662;49.128;8.520;2024-01-16T04:54:43;9.77;;;5.60;;
28427;SDS011;15662;49.128;8.520;2024-01-16T04:57:12;9.82;;;6.10;;
28427;SDS011;15662;49.128;8.520;2024-01-16T04:59:39;7.55;;;5.25;;
28427;SDS011;15662;49.128;8.520;2024-01-16T05:02:06;10.18;;;5.60;;
28427;SDS011;15662;49.128;8.520;2024-01-16T05:04:36;10.23;;;5.80;;
28427;SDS011;15662;49.128;8.520;2024-01-16T05:07:04;11.57;;;6.07;;
28427;SDS011;15662;49.128;8.520;2024-01-16T05:09:32;9.50;;;5.40;;
28427;SDS011;15662;49.128;8.520;2024-01-16T05:12:00;8.60;;;5.93;;
28427;SDS011;15662;49.128;8.520;2024-01-16T05:14:27;10.45;;;6.03;;
28427;SDS011;15662;49.128;8.520;2024-01-16T05:16:54;10.70;;;5.82;;
28427;SDS011;15662;49.128;8.520;2024-01-16T05:19:22;10.55;;;5.47;;
28427;SDS011;15662;49.128;8.520;2024-01-16T05:21:50;10.10;;;5.70;;
28427;SDS011;15662;49.128;8.520;2024-01-16T05:24:17;10.27;;;6.03;;
28427;SDS011;15662;49.128;8.520;2024-01-16T05:26:44;9.90;;;6.28;;
28427;SDS011;15662;49.128;8.520;2024-01-16T05:29:11;8.45;;;5.65;;
28427;SDS011;15662;49.128;8.520;2024-01-16T05:31:39;8.45;;;5.55;;
28427;SDS011;15662;49.128;8.520;2024-01-16T05:34:10;12.68;;;6.13;;
28427;SDS011;15662;49.128;8.520;2024-01-16T05:36:38;13.15;;;6.25;;
28427;SDS011;15662;49.128;8.520;2024-01-16T05:39:05;10.48;;;6.38;;
28427;SDS011;15662;49.128;8.520;2024-01-16T05:41:34;10.60;;;6.28;;
28427;SDS011;15662;49.128;8.520;2024-01-16T05:44:02;10.02;;;6.15;;
28427;SDS011;15662;49.128;8.520;2024-01-16T05:46:33;9.65;;;5.65;;
28427;SDS011;15662;49.128;8.520;2024-01-16T05:49:00;11.68;;;5.93;;
28427;SDS011;15662;49.128;8.520;2024-01-16T05:51:28;12.05;;;6.30;;
28427;SDS011;15662;49.128;8.520;2024-01-16T05:53:56;10.63;;;5.85;;
28427;SDS011;15662;49.128;8.520;2024-01-16T05:56:24;10.07;;;6.32;;
28427;SDS011;15662;49.128;8.520;2024-01-16T05:58:52;12.18;;;7.30;;
28427;SDS011;15662;49.128;8.520;2024-01-16T06:01:19;13.75;;;7.65;;
28427;SDS011;15662;49.128;8.520;2024-01-16T06:03:48;13.25;;;7.55;;
28427;SDS011;15662;49.128;8.520;2024-01-16T06:06:16;12.85;;;7.35;;
28427;SDS011;15662;49.128;8.520;2024-01-16T06:08:43;12.85;;;7.50;;
28427;SDS011;15662;49.128;8.520;2024-01-16T06:11:12;12.90;;;6.68;;
28427;SDS011;15662;49.128;8.520;2024-01-16T06:13:41;12.63;;;6.53;;
28427;SDS011;15662;49.128;8.520;2024-01-16T06:16:08;11.65;;;6.75;;
28427;SDS011;15662;49.128;8.520;2024-01-16T06:18:37;11.55;;;6.43;;
28427;SDS011;15662;49.128;8.520;2024-01-16T06:21:04;10.15;;;6.05;;
28427;SDS011;15662;49.128;8.520;2024-01-16T06:23:32;11.43;;;6.43;;
28427;SDS011;15662;49.128;8.520;2024-01-16T06:25:59;9.98;;;6.32;;
28427;SDS011;15662;49.128;8.520;2024-01-16T06:28:27;10.82;;;6.45;;
28427;SDS011;15662;49.128;8.520;2024-01-16T06:30:54;11.05;;;6.30;;
28427;SDS011;15662;49.128;8.520;2024-01-16T06:33:22;11.55;;;6.50;;
28427;SDS011;15662;49.128;8.520;2024-01-16T06:35:49;14.73;;;7.30;;
28427;SDS011;15662;49.128;8.520;2024-01-16T06:38:19;11.85;;;6.43;;
28427;SDS011;15662;49.128;8.520;2024-01-16T06:40:48;12.52;;;6.78;;
28427;SDS011;15662;49.128;8.520;2024-01-16T06:43:15;13.23;;;7.07;;
28427;SDS011;15662;49.128;8.520;2024-01-16T06:45:42;12.80;;;7.10;;
28427;SDS011;15662;49.128;8.520;2024-01-16T06:48:10;11.40;;;6.90;;
28427;SDS011;15662;49.128;8.520;2024-01-16T06:50:39;12.93;;;6.90;;
28427;SDS011;15662;49.128;8.520;2024-01-16T06:53:06;12.93;;;7.22;;
28427;SDS011;15662;49.128;8.520;2024-01-16T06:55:34;10.63;;;6.78;;
28427;SDS011;15662;49.128;8.520;2024-01-16T06:58:02;11.25;;;7.00;;
28427;SDS011;15662;49.128;8.520;2024-01-16T07:00:29;15.48;;;7.47;;
28427;SDS011;15662;49.128;8.520;2024-01-16T07:02:57;10.98;;;6.75;;
28427;SDS011;15662;49.128;8.520;2024-01-16T07:05:24;12.88;;;6.55;;
28427;SDS011;15662;49.128;8.520;2024-01-16T07:07:52;12.95;;;7.13;;
28427;SDS011;15662;49.128;8.520;2024-01-16T07:10:19;15.70;;;7.40;;
28427;SDS011;15662;49.128;8.520;2024-01-16T07:12:49;12.73;;;7.10;;
28427;SDS011;15662;49.128;8.520;2024-01-16T07:15:18;15.13;;;8.00;;
28427;SDS011;15662;49.128;8.520;2024-01-16T07:17:46;16.45;;;9.38;;
28427;SDS011;15662;49.128;8.520;2024-01-16T07:20:13;12.85;;;7.80;;
28427;SDS011;15662;49.128;8.520;2024-01-16T07:22:41;13.23;;;7.53;;
28427;SDS011;15662;49.128;8.520;2024-01-16T07:25:09;13.57;;;7.38;;
28427;SDS011;15662;49.128;8.520;2024-01-16T07:27:36;13.25;;;7.63;;
28427;SDS011;15662;49.128;8.520;2024-01-16T07:30:04;13.10;;;7.35;;
28427;SDS011;15662;49.128;8.520;2024-01-16T07:32:34;14.07;;;7.63;;
28427;SDS011;15662;49.128;8.520;2024-01-16T07:35:02;12.57;;;8.38;;
28427;SDS011;15662;49.128;8.520;2024-01-16T07:37:30;16.75;;;8.65;;
28427;SDS011;15662;49.128;8.520;2024-01-16T07:39:57;15.45;;;8.40;;
28427;SDS011;15662;49.128;8.520;2024-01-16T07:42:24;16.65;;;8.20;;
28427;SDS011;15662;49.128;8.520;2024-01-16T07:44:52;12.20;;;7.55;;
28427;SDS011;15662;49.128;8.520;2024-01-16T07:47:22;14.15;;;8.20;;
28427;SDS011;15662;49.128;8.520;2024-01-16T07:49:49;17.67;;;8.13;;
28427;SDS011;15662;49.128;8.520;2024-01-16T07:52:16;15.57;;;8.10;;
28427;SDS011;15662;49.128;8.520;2024-01-16T07:54:43;14.25;;;8.32;;
28427;SDS011;15662;49.128;8.520;2024-01-16T07:57:10;13.10;;;8.27;;
28427;SDS011;15662;49.128;8.520;2024-01-16T07:59:39;16.20;;;8.23;;
28427;SDS011;15662;49.128;8.520;2024-01-16T08:02:10;11.80;;;7.38;;
28427;SDS011;15662;49.128;8.520;2024-01-16T08:04:37;14.43;;;7.78;;
28427;SDS011;15662;49.128;8.520;2024-01-16T08:07:04;12.77;;;7.35;;
28427;SDS011;15662;49.128;8.520;2024-01-16T08:09:31;12.75;;;7.10;;
28427;SDS011;15662;49.128;8.520;2024-01-16T08:12:00;14.50;;;7.05;;
28427;SDS011;15662;49.128;8.520;2024-01-16T08:14:29;17.42;;;8.07;;
28427;SDS011;15662;49.128;8.520;2024-01-16T08:16:56;15.13;;;8.10;;
28427;SDS011;15662;49.128;8.520;2024-01-16T08:19:24;12.82;;;7.57;;
28427;SDS011;15662;49.128;8.520;2024-01-16T08:21:51;13.73;;;7.40;;
28427;SDS011;15662;49.128;8.520;2024-01-16T08:24:19;12.70;;;7.38;;
28427;SDS011;15662;49.128;8.520;2024-01-16T08:26:46;12.48;;;7.30;;
28427;SDS011;15662;49.128;8.520;2024-01-16T08:29:14;12.73;;;6.97;;
28427;SDS011;15662;49.128;8.520;2024-01-16T08:31:42;13.80;;;7.85;;
28427;SDS011;15662;49.128;8.520;2024-01-16T08:34:09;12.40;;;7.05;;
28427;SDS011;15662;49.128;8.520;2024-01-16T08:36:37;14.45;;;8.00;;
28427;SDS011;15662;49.128;8.520;2024-01-16T08:39:04;14.00;;;7.07;;
28427;SDS011;15662;49.128;8.520;2024-01-16T08:41:32;11.90;;;6.88;;
28427;SDS011;15662;49.128;8.520;2024-01-16T08:43:59;11.98;;;7.00;;
28427;SDS011;15662;49.128;8.520;2024-01-16T08:46:26;12.65;;;6.72;;
28427;SDS011;15662;49.128;8.520;2024-01-16T08:48:54;14.00;;;7.55;;
28427;SDS011;15662;49.128;8.520;2024-01-16T08:51:22;11.95;;;7.03;;
28427;SDS011;15662;49.128;8.520;2024-01-16T08:53:49;12.93;;;6.75;;
28427;SDS011;15662;49.128;8.520;2024-01-16T08:56:16;10.95;;;6.53;;
28427;SDS011;15662;49.128;8.520;2024-01-16T08:58:44;14.38;;;7.68;;
28427;SDS011;15662;49.128;8.520;2024-01-16T09:01:12;13.32;;;7.15;;
28427;SDS011;15662;49.128;8.520;2024-01-16T09:03:40;12.02;;;6.60;;
28427;SDS011;15662;49.128;8.520;2024-01-16T09:06:09;12.85;;;6.93;;
28427;SDS011;15662;49.128;8.520;2024-01-16T09:08:37;10.98;;;6.35;;
28427;SDS011;15662;49.128;8.520;2024-01-16T09:11:05;9.15;;;5.88;;
28427;SDS011;15662;49.128;8.520;2024-01-16T09:13:32;9.23;;;6.35;;
28427;SDS011;15662;49.128;8.520;2024-01-16T09:16:00;11.23;;;6.78;;
28427;SDS011;15662;49.128;8.520;2024-01-16T09:18:27;11.05;;;6.40;;
28427;SDS011;15662;49.128;8.520;2024-01-16T09:20:55;12.32;;;6.50;;
28427;SDS011;15662;49.128;8.520;2024-01-16T09:23:23;11.57;;;6.78;;
28427;SDS011;15662;49.128;8.520;2024-01-16T09:25:50;10.23;;;6.32;;
28427;SDS011;15662;49.128;8.520;2024-01-16T09:28:18;10.52;;;6.57;;
28427;SDS011;15662;49.128;8.520;2024-01-16T09:30:45;14.25;;;6.97;;
28427;SDS011;15662;49.128;8.520;2024-01-16T09:33:13;9.75;;;6.18;;
28427;SDS011;15662;49.128;8.520;2024-01-16T09:35:42;8.93;;;5.85;;
28427;SDS011;15662;49.128;8.520;2024-01-16T09:38:09;10.98;;;6.47;;
28427;SDS011;15662;49.128;8.520;2024-01-16T09:40:37;10.10;;;5.85;;
28427;SDS011;15662;49.128;8.520;2024-01-16T09:43:04;11.77;;;5.85;;
28427;SDS011;15662;49.128;8.520;2024-01-16T09:45:35;8.75;;;5.45;;
28427;SDS011;15662;49.128;8.520;2024-01-16T09:48:05;10.85;;;6.65;;
28427;SDS011;15662;49.128;8.520;2024-01-16T09:50:35;9.32;;;5.80;;
28427;SDS011;15662;49.128;8.520;2024-01-16T09:53:02;10.43;;;6.53;;
28427;SDS011;15662;49.128;8.520;2024-01-16T09:55:30;10.35;;;6.15;;
28427;SDS011;15662;49.128;8.520;2024-01-16T09:57:57;11.45;;;6.68;;
28427;SDS011;15662;49.128;8.520;2024-01-16T10:00:25;9.70;;;6.60;;
28427;SDS011;15662;49.128;8.520;2024-01-16T10:02:53;10.68;;;6.22;;
28427;SDS011;15662;49.128;8.520;2024-01-16T10:05:25;9.02;;;5.90;;
28427;SDS011;15662;49.128;8.520;2024-01-16T10:07:52;9.98;;;6.50;;
28427;SDS011;15662;49.128;8.520;2024-01-16T10:10:20;10.32;;;6.40;;
28427;SDS011;15662;49.128;8.520;2024-01-16T10:13:03;11.18;;;6.32;;
28427;SDS011;15662;49.128;8.520;2024-01-16T10:15:31;9.93;;;6.03;;
28427;SDS011;15662;49.128;8.520;2024-01-16T10:17:59;10.93;;;6.45;;
28427;SDS011;15662;49.128;8.520;2024-01-16T10:20:33;9.60;;;6.13;;
28427;SDS011;15662;49.128;8.520;2024-01-16T10:23:03;10.60;;;6.30;;
28427;SDS011;15662;49.128;8.520;2024-01-16T10:25:30;10.25;;;6.05;;
28427;SDS011;15662;49.128;8.520;2024-01-16T10:28:04;10.30;;;6.28;;
28427;SDS011;15662;49.128;8.520;2024-01-16T10:30:35;9.20;;;5.63;;
28427;SDS011;15662;49.128;8.520;2024-01-16T10:33:12;11.70;;;6.72;;
28427;SDS011;15662;49.128;8.520;2024-01-16T10:35:41;10.65;;;6.28;;
28427;SDS011;15662;49.128;8.520;2024-01-16T10:38:09;9.70;;;5.82;;
28427;SDS011;15662;49.128;8.520;2024-01-16T10:40:46;9.52;;;5.85;;
28427;SDS011;15662;49.128;8.520;2024-01-16T10:43:14;9.98;;;5.97;;
28427;SDS011;15662;49.128;8.520;2024-01-16T10:45:46;10.98;;;6.40;;
28427;SDS011;15662;49.128;8.520;2024-01-16T10:48:13;11.80;;;6.65;;
28427;SDS011;15662;49.128;8.520;2024-01-16T10:50:43;17.15;;;8.80;;
28427;SDS011;15662;49.128;8.520;2024-01-16T10:53:13;10.63;;;5.85;;
28427;SDS011;15662;49.128;8.520;2024-01-16T10:55:43;9.27;;;6.13;;
28427;SDS011;15662;49.128;8.520;2024-01-16T10:58:19;10.02;;;6.05;;
28427;SDS011;15662;49.128;8.520;2024-01-16T11:00:50;10.30;;;6.13;;
28427;SDS011;15662;49.128;8.520;2024-01-16T11:03:43;8.40;;;5.47;;
28427;SDS011;15662;49.128;8.520;2024-01-16T11:06:16;8.80;;;5.80;;
28427;SDS011;15662;49.128;8.520;2024-01-16T11:08:47;10.33;;;6.30;;
28427;SDS011;15662;49.128;8.520;2024-01-16T11:11:16;10.30;;;6.05;;
28427;SDS011;15662;49.128;8.520;2024-01-16T11:13:45;11.65;;;7.00;;
28427;SDS011;15662;49.128;8.520;2024-01-16T11:16:13;11.68;;;6.22;;
28427;SDS011;15662;49.128;8.520;2024-01-16T11:18:43;9.57;;;5.82;;
28427;SDS011;15662;49.128;8.520;2024-01-16T11:21:15;10.80;;;6.63;;
28427;SDS011;15662;49.128;8.520;2024-01-16T11:23:45;8.20;;;6.03;;
28427;SDS011;15662;49.128;8.520;2024-01-16T11:26:24;9.50;;;6.00;;
28427;SDS011;15662;49.128;8.520;2024-01-16T11:29:00;8.50;;;5.35;;
28427;SDS011;15662;49.128;8.520;2024-01-16T11:31:56;9.77;;;4.88;;
28427;SDS011;15662;49.128;8.520;2024-01-16T11:37:15;10.02;;;5.75;;
28427;SDS011;15662;49.128;8.520;2024-01-16T11:42:49;12.18;;;5.30;;
28427;SDS011;15662;49.128;8.520;2024-01-16T11:48:11;6.93;;;4.78;;
28427;SDS011;15662;49.128;8.520;2024-01-16T11:50:40;6.57;;;4.60;;
28427;SDS011;15662;49.128;8.520;2024-01-16T11:53:08;6.72;;;4.82;;
28427;SDS011;15662;49.128;8.520;2024-01-16T12:02:28;7.28;;;4.40;;
28427;SDS011;15662;49.128;8.520;2024-01-16T12:05:03;5.95;;;4.03;;
28427;SDS011;15662;49.128;8.520;2024-01-16T12:07:52;8.15;;;3.80;;
28427;SDS011;15662;49.128;8.520;2024-01-16T12:10:22;6.85;;;3.60;;
28427;SDS011;15662;49.128;8.520;2024-01-16T12:12:51;7.47;;;4.07;;
28427;SDS011;15662;49.128;8.520;2024-01-16T12:15:30;6.63;;;4.28;;
28427;SDS011;15662;49.128;8.520;2024-01-16T12:17:59;5.93;;;3.97;;
28427;SDS011;15662;49.128;8.520;2024-01-16T12:20:29;7.35;;;3.90;;
28427;SDS011;15662;49.128;8.520;2024-01-16T12:23:02;8.20;;;4.28;;
28427;SDS011;15662;49.128;8.520;2024-01-16T12:25:36;11.05;;;4.30;;
28427;SDS011;15662;49.128;8.520;2024-01-16T12:28:24;6.53;;;4.00;;
28427;SDS011;15662;49.128;8.520;2024-01-16T12:30:59;7.70;;;4.05;;
28427;SDS011;15662;49.128;8.520;2024-01-16T12:33:28;6.15;;;3.65;;
28427;SDS011;15662;49.128;8.520;2024-01-16T12:36:02;10.70;;;4.65;;
28427;SDS011;15662;49.128;8.520;2024-01-16T12:38:33;5.15;;;3.45;;
28427;SDS011;15662;49.128;8.520;2024-01-16T12:41:02;7.85;;;3.60;;
28427;SDS011;15662;49.128;8.520;2024-01-16T12:43:36;8.00;;;3.80;;
28427;SDS011;15662;49.128;8.520;2024-01-16T12:46:03;6.05;;;3.60;;
28427;SDS011;15662;49.128;8.520;2024-01-16T12:48:33;7.15;;;3.92;;
28427;SDS011;15662;49.128;8.520;2024-01-16T12:51:01;8.45;;;3.58;;
28427;SDS011;15662;49.128;8.520;2024-01-16T12:53:31;4.97;;;3.50;;
28427;SDS011;15662;49.128;8.520;2024-01-16T12:56:00;5.60;;;3.35;;
28427;SDS011;15662;49.128;8.520;2024-01-16T12:58:35;7.30;;;3.67;;
28427;SDS011;15662;49.128;8.520;2024-01-16T13:04:05;8.60;;;3.50;;
28427;SDS011;15662;49.128;8.520;2024-01-16T13:06:34;6.80;;;4.10;;
28427;SDS011;15662;49.128;8.520;2024-01-16T13:09:06;6.78;;;3.70;;
28427;SDS011;15662;49.128;8.520;2024-01-16T13:11:53;4.55;;;2.50;;
28427;SDS011;15662;49.128;8.520;2024-01-16T13:14:24;8.00;;;3.00;;
28427;SDS011;15662;49.128;8.520;2024-01-16T13:16:52;4.13;;;2.50;;
28427;SDS011;15662;49.128;8.520;2024-01-16T13:19:23;4.43;;;2.72;;
28427;SDS011;15662;49.128;8.520;2024-01-16T13:21:52;5.88;;;2.60;;
28427;SDS011;15662;49.128;8.520;2024-01-16T13:24:20;5.28;;;2.50;;
28427;SDS011;15662;49.128;8.520;2024-01-16T13:26:50;5.78;;;2.67;;
28427;SDS011;15662;49.128;8.520;2024-01-16T13:29:19;4.32;;;2.53;;
28427;SDS011;15662;49.128;8.520;2024-01-16T13:31:46;5.93;;;2.47;;
28427;SDS011;15662;49.128;8.520;2024-01-16T13:34:14;5.97;;;2.40;;
28427;SDS011;15662;49.128;8.520;2024-01-16T13:36:45;4.82;;;2.58;;
28427;SDS011;15662;49.128;8.520;2024-01-16T13:39:36;5.32;;;2.67;;
28427;SDS011;15662;49.128;8.520;2024-01-16T13:42:25;6.43;;;3.28;;
28427;SDS011;15662;49.128;8.520;2024-01-16T13:44:53;27.00;;;4.10;;
28427;SDS011;15662;49.128;8.520;2024-01-16T13:47:20;9.73;;;3.20;;
28427;SDS011;15662;49.128;8.520;2024-01-16T13:49:48;6.22;;;3.33;;
28427;SDS011;15662;49.128;8.520;2024-01-16T13:52:16;5.82;;;3.00;;
28427;SDS011;15662;49.128;8.520;2024-01-16T13:54:44;5.93;;;2.88;;
28427;SDS011;15662;49.128;8.520;2024-01-16T13:57:12;8.07;;;2.88;;
28427;SDS011;15662;49.128;8.520;2024-01-16T13:59:40;5.40;;;2.40;;
28427;SDS011;15662;49.128;8.520;2024-01-16T14:02:07;3.78;;;2.33;;
28427;SDS011;15662;49.128;8.520;2024-01-16T14:04:35;2.65;;;2.25;;
28427;SDS011;15662;49.128;8.520;2024-01-16T14:07:03;4.13;;;1.90;;
28427;SDS011;15662;49.128;8.520;2024-01-16T14:09:33;3.55;;;1.67;;
28427;SDS011;15662;49.128;8.520;2024-01-16T14:12:02;29.02;;;2.95;;
28427;SDS011;15662;49.128;8.520;2024-01-16T14:14:30;2.25;;;1.50;;
28427;SDS011;15662;49.128;8.520;2024-01-16T14:16:58;7.03;;;1.98;;
28427;SDS011;15662;49.128;8.520;2024-01-16T14:19:28;3.92;;;1.83;;
28427;SDS011;15662;49.128;8.520;2024-01-16T14:21:59;4.60;;;1.90;;
28427;SDS011;15662;49.128;8.520;2024-01-16T14:24:27;4.45;;;1.70;;
28427;SDS011;15662;49.128;8.520;2024-01-16T14:26:54;2.83;;;1.70;;
28427;SDS011;15662;49.128;8.520;2024-01-16T14:29:25;3.67;;;1.73;;
28427;SDS011;15662;49.128;8.520;2024-01-16T14:31:53;4.22;;;1.63;;
28427;SDS011;15662;49.128;8.520;2024-01-16T14:34:23;6.20;;;1.50;;
28427;SDS011;15662;49.128;8.520;2024-01-16T14:36:53;4.93;;;1.40;;
28427;SDS011;15662;49.128;8.520;2024-01-16T14:39:21;3.42;;;1.98;;
28427;SDS011;15662;49.128;8.520;2024-01-16T14:44:21;3.55;;;1.70;;
28427;SDS011;15662;49.128;8.520;2024-01-16T14:46:48;2.33;;;1.60;;
28427;SDS011;15662;49.128;8.520;2024-01-16T14:49:19;3.03;;;1.70;;
28427;SDS011;15662;49.128;8.520;2024-01-16T14:51:48;5.18;;;1.92;;
28427;SDS011;15662;49.128;8.520;2024-01-16T14:54:17;5.95;;;1.50;;
28427;SDS011;15662;49.128;8.520;2024-01-16T14:56:45;2.63;;;1.92;;
28427;SDS011;15662;49.128;8.520;2024-01-16T14:59:13;5.35;;;2.28;;
28427;SDS011;15662;49.128;8.520;2024-01-16T15:01:42;7.40;;;2.42;;
28427;SDS011;15662;49.128;8.520;2024-01-16T15:04:11;6.15;;;2.53;;
28427;SDS011;15662;49.128;8.520;2024-01-16T15:06:39;5.45;;;2.35;;
28427;SDS011;15662;49.128;8.520;2024-01-16T15:09:07;4.57;;;2.50;;
28427;SDS011;15662;49.128;8.520;2024-01-16T15:11:39;4.32;;;2.20;;
28427;SDS011;15662;49.128;8.520;2024-01-16T15:14:14;6.63;;;2.20;;